sensor_id;sensor_type;location;lat;lon;timestamp;pressure;altitude;pressure_sealevel;temperature;humidity
80682;BME280;70045;40.200;44.582;2024-03-23T00:55:13;85727.19;;;6.35;55.85
80682;BME280;70045;40.200;44.582;2024-03-23T00:57:40;85738.06;;;6.19;56.36
80682;BME280;70045;40.200;44.582;2024-03-23T01:00:06;85732.31;;;6.12;56.15
80682;BME280;70045;40.200;44.582;2024-03-23T01:02:32;85735.69;;;6.05;56.17
80682;BME280;70045;40.200;44.582;2024-03-23T01:04:58;85730.56;;;6.05;56.21
80682;BME280;70045;40.200;44.582;2024-03-23T01:07:23;85730.56;;;6.05;55.69
80682;BME280;70045;40.200;44.582;2024-03-23T01:09:49;85730.13;;;6.10;55.36
80682;BME280;70045;40.200;44.582;2024-03-23T01:12:15;85728.91;;;6.18;55.66
80682;BME280;70045;40.200;44.582;2024-03-23T01:14:40;85721.63;;;6.37;55.19
80682;BME280;70045;40.200;44.582;2024-03-23T01:17:05;85721.09;;;6.49;54.05
80682;BME280;70045;40.200;44.582;2024-03-23T01:19:31;85729.28;;;6.68;54.14
80682;BME280;70045;40.200;44.582;2024-03-23T01:21:58;85729.38;;;6.84;52.38
80682;BME280;70045;40.200;44.582;2024-03-23T01:24:24;85735.47;;;6.94;53.59
80682;BME280;70045;40.200;44.582;2024-03-23T01:26:49;85740.16;;;6.99;53.42
80682;BME280;70045;40.200;44.582;2024-03-23T01:29:22;85732.50;;;6.95;51.18
80682;BME280;70045;40.200;44.582;2024-03-23T01:31:47;85733.72;;;6.87;51.54
80682;BME280;70045;40.200;44.582;2024-03-23T01:34:13;85738.16;;;6.87;52.57
80682;BME280;70045;40.200;44.582;2024-03-23T01:36:39;85732.63;;;6.88;52.68
80682;BME280;70045;40.200;44.582;2024-03-23T01:39:04;85728.19;;;6.89;51.96
80682;BME280;70045;40.200;44.582;2024-03-23T01:41:30;85729.72;;;6.86;53.27
80682;BME280;70045;40.200;44.582;2024-03-23T01:43:55;85721.59;;;6.88;53.28
80682;BME280;70045;40.200;44.582;2024-03-23T01:46:21;85722.91;;;6.96;52.61
80682;BME280;70045;40.200;44.582;2024-03-23T01:48:47;85734.97;;;7.03;52.93
80682;BME280;70045;40.200;44.582;2024-03-23T01:51:13;85726.84;;;7.04;52.62
80682;BME280;70045;40.200;44.582;2024-03-23T01:53:38;85724.97;;;7.05;52.87
80682;BME280;70045;40.200;44.582;2024-03-23T01:56:05;85725.78;;;7.02;51.92
80682;BME280;70045;40.200;44.582;2024-03-23T01:58:32;85726.50;;;7.02;52.82
80682;BME280;70045;40.200;44.582;2024-03-23T02:00:58;85722.06;;;7.03;52.25
80682;BME280;70045;40.200;44.582;2024-03-23T02:05:49;85720.13;;;6.87;52.09
80682;BME280;70045;40.200;44.582;2024-03-23T02:08:17;85720.31;;;6.76;52.94
80682;BME280;70045;40.200;44.582;2024-03-23T02:10:43;85718.31;;;6.64;52.92
80682;BME280;70045;40.200;44.582;2024-03-23T02:13:09;85709.00;;;6.46;52.60
80682;BME280;70045;40.200;44.582;2024-03-23T02:15:34;85720.09;;;6.43;52.30
80682;BME280;70045;40.200;44.582;2024-03-23T02:18:00;85712.75;;;6.41;52.34
80682;BME280;70045;40.200;44.582;2024-03-23T02:20:25;85708.38;;;6.38;52.27
80682;BME280;70045;40.200;44.582;2024-03-23T02:22:53;85705.19;;;6.31;52.53
80682;BME280;70045;40.200;44.582;2024-03-23T02:25:19;85710.44;;;6.24;51.69
80682;BME280;70045;40.200;44.582;2024-03-23T02:27:44;85703.28;;;6.11;52.76
80682;BME280;70045;40.200;44.582;2024-03-23T02:30:20;85703.53;;;5.90;53.76
80682;BME280;70045;40.200;44.582;2024-03-23T02:32:46;85691.19;;;5.77;53.31
80682;BME280;70045;40.200;44.582;2024-03-23T02:35:12;85685.72;;;5.75;53.83
80682;BME280;70045;40.200;44.582;2024-03-23T02:37:38;85691.59;;;5.76;53.36
80682;BME280;70045;40.200;44.582;2024-03-23T02:40:03;85676.41;;;5.58;53.61
80682;BME280;70045;40.200;44.582;2024-03-23T02:42:29;85702.25;;;5.74;53.42
80682;BME280;70045;40.200;44.582;2024-03-23T02:44:54;85699.69;;;5.74;53.07
80682;BME280;70045;40.200;44.582;2024-03-23T02:47:20;85706.38;;;5.68;53.27
80682;BME280;70045;40.200;44.582;2024-03-23T02:49:46;85707.09;;;5.69;53.09
80682;BME280;70045;40.200;44.582;2024-03-23T02:52:11;85707.50;;;5.67;53.52
80682;BME280;70045;40.200;44.582;2024-03-23T02:54:37;85710.06;;;5.67;52.54
80682;BME280;70045;40.200;44.582;2024-03-23T02:57:02;85710.75;;;5.71;53.07
80682;BME280;70045;40.200;44.582;2024-03-23T02:59:28;85712.09;;;5.79;53.20
80682;BME280;70045;40.200;44.582;2024-03-23T03:01:54;85701.81;;;5.79;53.13
80682;BME280;70045;40.200;44.582;2024-03-23T03:04:19;85704.16;;;5.70;53.03
80682;BME280;70045;40.200;44.582;2024-03-23T03:06:48;85711.19;;;5.66;52.50
80682;BME280;70045;40.200;44.582;2024-03-23T03:09:13;85715.59;;;5.65;52.08
80682;BME280;70045;40.200;44.582;2024-03-23T03:11:39;85710.72;;;5.75;52.55
80682;BME280;70045;40.200;44.582;2024-03-23T03:14:04;85712.00;;;5.87;51.67
80682;BME280;70045;40.200;44.582;2024-03-23T03:16:30;85716.69;;;5.99;52.68
80682;BME280;70045;40.200;44.582;2024-03-23T03:18:55;85726.06;;;6.09;52.41
80682;BME280;70045;40.200;44.582;2024-03-23T03:21:21;85730.34;;;6.19;51.55
80682;BME280;70045;40.200;44.582;2024-03-23T03:23:48;85728.81;;;6.26;51.23
80682;BME280;70045;40.200;44.582;2024-03-23T03:26:14;85725.78;;;6.31;52.36
80682;BME280;70045;40.200;44.582;2024-03-23T03:28:39;85729.03;;;6.35;52.44
80682;BME280;70045;40.200;44.582;2024-03-23T03:31:04;85728.25;;;6.38;52.34
80682;BME280;70045;40.200;44.582;2024-03-23T03:33:30;85728.91;;;6.42;52.76
80682;BME280;70045;40.200;44.582;2024-03-23T03:35:56;85725.91;;;6.47;51.11
80682;BME280;70045;40.200;44.582;2024-03-23T03:38:21;85724.34;;;6.53;52.32
80682;BME280;70045;40.200;44.582;2024-03-23T03:40:47;85726.47;;;6.58;51.57
80682;BME280;70045;40.200;44.582;2024-03-23T03:43:12;85734.66;;;6.53;50.83
80682;BME280;70045;40.200;44.582;2024-03-23T03:45:38;85734.94;;;6.32;50.61
80682;BME280;70045;40.200;44.582;2024-03-23T03:48:05;85740.41;;;6.37;52.57
80682;BME280;70045;40.200;44.582;2024-03-23T03:50:30;85740.25;;;6.48;51.87
80682;BME280;70045;40.200;44.582;2024-03-23T03:52:56;85747.47;;;6.57;51.56
80682;BME280;70045;40.200;44.582;2024-03-23T03:55:21;85755.59;;;6.55;51.52
80682;BME280;70045;40.200;44.582;2024-03-23T03:57:47;85750.38;;;6.59;52.00
80682;BME280;70045;40.200;44.582;2024-03-23T04:00:13;85746.97;;;6.66;51.79
80682;BME280;70045;40.200;44.582;2024-03-23T04:02:39;85744.28;;;6.73;51.17
80682;BME280;70045;40.200;44.582;2024-03-23T04:05:05;85751.06;;;6.87;51.40
80682;BME280;70045;40.200;44.582;2024-03-23T04:07:31;85753.06;;;6.99;51.29
80682;BME280;70045;40.200;44.582;2024-03-23T04:09:56;85751.56;;;7.02;50.48
80682;BME280;70045;40.200;44.582;2024-03-23T04:12:23;85744.41;;;7.09;50.94
80682;BME280;70045;40.200;44.582;2024-03-23T04:14:49;85733.94;;;7.20;50.26
80682;BME280;70045;40.200;44.582;2024-03-23T04:17:14;85736.91;;;7.39;50.24
80682;BME280;70045;40.200;44.582;2024-03-23T04:19:40;85739.56;;;7.55;50.37
80682;BME280;70045;40.200;44.582;2024-03-23T04:22:05;85739.31;;;7.69;49.58
80682;BME280;70045;40.200;44.582;2024-03-23T04:24:32;85732.41;;;7.83;47.80
80682;BME280;70045;40.200;44.582;2024-03-23T04:26:57;85736.97;;;7.95;47.38
80682;BME280;70045;40.200;44.582;2024-03-23T04:29:23;85730.53;;;8.03;47.98
80682;BME280;70045;40.200;44.582;2024-03-23T04:31:48;85710.03;;;7.96;47.17
80682;BME280;70045;40.200;44.582;2024-03-23T04:34:14;85730.88;;;8.22;46.62
80682;BME280;70045;40.200;44.582;2024-03-23T04:36:39;85734.88;;;8.43;46.51
80682;BME280;70045;40.200;44.582;2024-03-23T04:39:05;85734.16;;;8.59;45.28
80682;BME280;70045;40.200;44.582;2024-03-23T04:41:30;85732.63;;;8.78;45.82
80682;BME280;70045;40.200;44.582;2024-03-23T04:43:56;85716.88;;;8.89;44.80
80682;BME280;70045;40.200;44.582;2024-03-23T04:46:21;85713.31;;;8.99;42.23
80682;BME280;70045;40.200;44.582;2024-03-23T04:48:47;85710.63;;;9.02;44.13
80682;BME280;70045;40.200;44.582;2024-03-23T04:51:25;85707.16;;;9.09;43.19
80682;BME280;70045;40.200;44.582;2024-03-23T04:53:51;85693.81;;;9.11;45.05
80682;BME280;70045;40.200;44.582;2024-03-23T04:56:16;85688.16;;;9.16;42.60
80682;BME280;70045;40.200;44.582;2024-03-23T04:58:43;85674.00;;;9.20;43.90
80682;BME280;70045;40.200;44.582;2024-03-23T05:01:11;85675.25;;;9.29;43.81
80682;BME280;70045;40.200;44.582;2024-03-23T05:03:36;85670.75;;;9.33;42.30
80682;BME280;70045;40.200;44.582;2024-03-23T05:06:02;85671.19;;;9.44;40.91
80682;BME280;70045;40.200;44.582;2024-03-23T05:08:27;85673.72;;;9.60;40.50
80682;BME280;70045;40.200;44.582;2024-03-23T05:10:53;85685.97;;;9.73;40.86
80682;BME280;70045;40.200;44.582;2024-03-23T05:13:19;85699.66;;;9.86;40.28
80682;BME280;70045;40.200;44.582;2024-03-23T05:15:52;85704.75;;;10.03;37.37
80682;BME280;70045;40.200;44.582;2024-03-23T05:18:17;85707.66;;;10.17;39.91
80682;BME280;70045;40.200;44.582;2024-03-23T05:20:42;85706.56;;;10.31;38.91
80682;BME280;70045;40.200;44.582;2024-03-23T05:23:08;85715.69;;;10.49;41.11
80682;BME280;70045;40.200;44.582;2024-03-23T05:25:34;85718.78;;;10.57;39.31
80682;BME280;70045;40.200;44.582;2024-03-23T05:27:59;85719.22;;;10.68;40.89
80682;BME280;70045;40.200;44.582;2024-03-23T05:30:25;85724.38;;;10.81;37.09
80682;BME280;70045;40.200;44.582;2024-03-23T05:32:50;85720.31;;;10.92;40.03
80682;BME280;70045;40.200;44.582;2024-03-23T05:35:16;85723.00;;;11.02;38.69
80682;BME280;70045;40.200;44.582;2024-03-23T05:37:42;85729.53;;;11.06;37.78
80682;BME280;70045;40.200;44.582;2024-03-23T05:40:08;85738.72;;;11.20;39.16
80682;BME280;70045;40.200;44.582;2024-03-23T05:42:34;85738.09;;;11.29;38.06
80682;BME280;70045;40.200;44.582;2024-03-23T05:44:59;85738.91;;;11.39;36.86
80682;BME280;70045;40.200;44.582;2024-03-23T05:47:24;85740.63;;;11.55;38.49
80682;BME280;70045;40.200;44.582;2024-03-23T05:49:50;85739.53;;;11.65;36.46
80682;BME280;70045;40.200;44.582;2024-03-23T05:52:16;85751.91;;;11.61;36.99
80682;BME280;70045;40.200;44.582;2024-03-23T05:54:41;85754.09;;;11.84;39.17
80682;BME280;70045;40.200;44.582;2024-03-23T05:57:07;85756.00;;;12.06;39.22
80682;BME280;70045;40.200;44.582;2024-03-23T05:59:32;85753.28;;;12.10;37.16
80682;BME280;70045;40.200;44.582;2024-03-23T06:01:58;85754.56;;;12.05;36.76
80682;BME280;70045;40.200;44.582;2024-03-23T06:04:24;85756.78;;;11.94;39.29
80682;BME280;70045;40.200;44.582;2024-03-23T06:06:50;85761.84;;;11.75;39.44
80682;BME280;70045;40.200;44.582;2024-03-23T06:09:15;85752.81;;;11.67;39.59
80682;BME280;70045;40.200;44.582;2024-03-23T06:11:41;85758.19;;;11.73;38.39
80682;BME280;70045;40.200;44.582;2024-03-23T06:14:07;85759.25;;;11.75;38.59
80682;BME280;70045;40.200;44.582;2024-03-23T06:16:33;85762.25;;;11.74;38.45
80682;BME280;70045;40.200;44.582;2024-03-23T06:18:58;85772.53;;;11.77;40.04
80682;BME280;70045;40.200;44.582;2024-03-23T06:21:24;85767.47;;;11.96;40.64
80682;BME280;70045;40.200;44.582;2024-03-23T06:23:53;85765.84;;;12.11;40.68
80682;BME280;70045;40.200;44.582;2024-03-23T06:26:20;85774.47;;;12.08;39.58
80682;BME280;70045;40.200;44.582;2024-03-23T06:28:48;85760.34;;;12.09;39.68
80682;BME280;70045;40.200;44.582;2024-03-23T06:31:14;85761.56;;;12.17;40.29
80682;BME280;70045;40.200;44.582;2024-03-23T06:33:39;85764.00;;;12.12;39.51
80682;BME280;70045;40.200;44.582;2024-03-23T06:36:05;85761.66;;;12.36;40.08
80682;BME280;70045;40.200;44.582;2024-03-23T06:38:31;85757.91;;;12.37;39.93
80682;BME280;70045;40.200;44.582;2024-03-23T06:40:57;85766.56;;;12.34;39.62
80682;BME280;70045;40.200;44.582;2024-03-23T06:43:22;85756.16;;;12.34;40.21
80682;BME280;70045;40.200;44.582;2024-03-23T06:45:54;85754.91;;;12.38;39.62
80682;BME280;70045;40.200;44.582;2024-03-23T06:48:20;85752.19;;;12.51;39.50
80682;BME280;70045;40.200;44.582;2024-03-23T06:50:46;85745.03;;;12.65;40.15
80682;BME280;70045;40.200;44.582;2024-03-23T06:53:15;85752.28;;;12.70;39.92
80682;BME280;70045;40.200;44.582;2024-03-23T06:55:41;85750.34;;;12.52;40.38
80682;BME280;70045;40.200;44.582;2024-03-23T06:58:07;85747.63;;;12.55;41.10
80682;BME280;70045;40.200;44.582;2024-03-23T07:00:32;85749.69;;;12.70;41.49
80682;BME280;70045;40.200;44.582;2024-03-23T07:03:00;85743.38;;;12.80;41.31
80682;BME280;70045;40.200;44.582;2024-03-23T07:05:25;85743.13;;;12.96;41.47
80682;BME280;70045;40.200;44.582;2024-03-23T07:07:51;85734.31;;;12.85;39.99
80682;BME280;70045;40.200;44.582;2024-03-23T07:10:16;85725.66;;;12.97;40.69
80682;BME280;70045;40.200;44.582;2024-03-23T07:12:42;85727.56;;;13.15;41.76
80682;BME280;70045;40.200;44.582;2024-03-23T07:15:08;85727.00;;;13.29;40.48
80682;BME280;70045;40.200;44.582;2024-03-23T07:17:34;85720.66;;;13.21;40.29
80682;BME280;70045;40.200;44.582;2024-03-23T07:19:59;85720.13;;;13.35;40.88
80682;BME280;70045;40.200;44.582;2024-03-23T07:22:25;85716.94;;;13.59;40.26
80682;BME280;70045;40.200;44.582;2024-03-23T07:24:50;85717.97;;;13.71;39.84
80682;BME280;70045;40.200;44.582;2024-03-23T07:27:17;85712.19;;;13.58;40.18
80682;BME280;70045;40.200;44.582;2024-03-23T07:29:42;85714.50;;;13.46;38.17
80682;BME280;70045;40.200;44.582;2024-03-23T07:32:08;85705.38;;;13.51;37.61
80682;BME280;70045;40.200;44.582;2024-03-23T07:34:33;85697.88;;;13.53;38.79
80682;BME280;70045;40.200;44.582;2024-03-23T07:36:58;85696.97;;;13.37;38.04
80682;BME280;70045;40.200;44.582;2024-03-23T07:39:24;85688.88;;;13.35;39.51
80682;BME280;70045;40.200;44.582;2024-03-23T07:41:50;85697.88;;;13.53;39.20
80682;BME280;70045;40.200;44.582;2024-03-23T07:44:15;85686.28;;;13.63;36.77
80682;BME280;70045;40.200;44.582;2024-03-23T07:46:41;85691.22;;;13.61;36.99
80682;BME280;70045;40.200;44.582;2024-03-23T07:49:06;85686.00;;;13.52;36.53
80682;BME280;70045;40.200;44.582;2024-03-23T07:51:32;85687.75;;;13.46;36.24
80682;BME280;70045;40.200;44.582;2024-03-23T07:53:58;85670.94;;;13.47;37.13
80682;BME280;70045;40.200;44.582;2024-03-23T07:56:23;85672.13;;;13.46;38.22
80682;BME280;70045;40.200;44.582;2024-03-23T07:58:48;85679.59;;;13.25;37.20
80682;BME280;70045;40.200;44.582;2024-03-23T08:01:15;85678.88;;;13.25;36.62
80682;BME280;70045;40.200;44.582;2024-03-23T08:03:43;85681.34;;;13.28;37.12
80682;BME280;70045;40.200;44.582;2024-03-23T08:06:11;85672.06;;;13.27;37.54
80682;BME280;70045;40.200;44.582;2024-03-23T08:08:39;85668.91;;;13.32;36.81
80682;BME280;70045;40.200;44.582;2024-03-23T08:11:05;85664.03;;;13.44;36.29
80682;BME280;70045;40.200;44.582;2024-03-23T08:13:31;85673.28;;;13.63;36.23
80682;BME280;70045;40.200;44.582;2024-03-23T08:16:02;85669.63;;;13.88;35.62
80682;BME280;70045;40.200;44.582;2024-03-23T08:18:28;85664.16;;;13.77;36.02
80682;BME280;70045;40.200;44.582;2024-03-23T08:21:06;85656.03;;;13.75;36.51
80682;BME280;70045;40.200;44.582;2024-03-23T08:23:34;85659.81;;;13.74;37.21
80682;BME280;70045;40.200;44.582;2024-03-23T08:26:01;85663.50;;;14.01;36.64
80682;BME280;70045;40.200;44.582;2024-03-23T08:28:27;85656.81;;;14.27;37.03
80682;BME280;70045;40.200;44.582;2024-03-23T08:30:53;85653.53;;;14.60;36.43
80682;BME280;70045;40.200;44.582;2024-03-23T08:33:20;85639.69;;;15.02;35.60
80682;BME280;70045;40.200;44.582;2024-03-23T08:36:03;85639.66;;;15.75;33.81
80682;BME280;70045;40.200;44.582;2024-03-23T08:38:29;85632.13;;;15.29;34.23
80682;BME280;70045;40.200;44.582;2024-03-23T08:40:59;85634.19;;;14.76;34.59
80682;BME280;70045;40.200;44.582;2024-03-23T08:43:25;85646.78;;;14.35;36.17
80682;BME280;70045;40.200;44.582;2024-03-23T08:45:51;85651.22;;;14.01;36.99
80682;BME280;70045;40.200;44.582;2024-03-23T08:48:17;85646.88;;;13.98;37.33
80682;BME280;70045;40.200;44.582;2024-03-23T08:50:42;85647.19;;;13.91;37.92
80682;BME280;70045;40.200;44.582;2024-03-23T08:53:08;85653.00;;;13.77;37.86
80682;BME280;70045;40.200;44.582;2024-03-23T08:55:33;85653.84;;;13.83;37.88
80682;BME280;70045;40.200;44.582;2024-03-23T08:57:59;85641.84;;;13.85;38.26
80682;BME280;70045;40.200;44.582;2024-03-23T09:00:25;85645.00;;;13.99;38.64
80682;BME280;70045;40.200;44.582;2024-03-23T09:02:50;85643.00;;;13.66;38.50
80682;BME280;70045;40.200;44.582;2024-03-23T09:05:16;85641.00;;;13.61;38.48
80682;BME280;70045;40.200;44.582;2024-03-23T09:07:41;85647.50;;;13.65;39.93
80682;BME280;70045;40.200;44.582;2024-03-23T09:10:07;85636.81;;;13.63;38.00
80682;BME280;70045;40.200;44.582;2024-03-23T09:12:33;85635.78;;;13.61;38.95
80682;BME280;70045;40.200;44.582;2024-03-23T09:14:59;85643.16;;;13.25;39.25
80682;BME280;70045;40.200;44.582;2024-03-23T09:17:24;85638.50;;;12.92;40.94
80682;BME280;70045;40.200;44.582;2024-03-23T09:19:50;85639.00;;;12.69;40.89
80682;BME280;70045;40.200;44.582;2024-03-23T09:22:15;85628.47;;;12.63;41.54
80682;BME280;70045;40.200;44.582;2024-03-23T09:24:42;85627.59;;;12.66;41.12
80682;BME280;70045;40.200;44.582;2024-03-23T09:27:08;85630.06;;;12.60;39.96
80682;BME280;70045;40.200;44.582;2024-03-23T09:29:33;85630.19;;;12.66;40.62
80682;BME280;70045;40.200;44.582;2024-03-23T09:31:59;85626.28;;;12.52;38.68
80682;BME280;70045;40.200;44.582;2024-03-23T09:34:24;85615.16;;;12.52;38.55
80682;BME280;70045;40.200;44.582;2024-03-23T09:36:51;85619.88;;;12.44;38.49
80682;BME280;70045;40.200;44.582;2024-03-23T09:39:18;85612.56;;;12.52;38.80
80682;BME280;70045;40.200;44.582;2024-03-23T09:41:43;85606.56;;;12.33;38.03
80682;BME280;70045;40.200;44.582;2024-03-23T09:44:09;85610.72;;;12.21;38.59
80682;BME280;70045;40.200;44.582;2024-03-23T09:46:34;85593.25;;;12.31;38.63
80682;BME280;70045;40.200;44.582;2024-03-23T09:49:03;85596.19;;;12.33;38.96
80682;BME280;70045;40.200;44.582;2024-03-23T09:51:28;85598.16;;;12.19;38.57
80682;BME280;70045;40.200;44.582;2024-03-23T09:53:54;85584.47;;;12.28;38.93
80682;BME280;70045;40.200;44.582;2024-03-23T09:56:19;85584.22;;;12.44;38.16
80682;BME280;70045;40.200;44.582;2024-03-23T09:58:45;85580.31;;;12.40;38.67
80682;BME280;70045;40.200;44.582;2024-03-23T10:01:11;85568.31;;;12.42;37.94
80682;BME280;70045;40.200;44.582;2024-03-23T10:03:46;85577.44;;;12.38;37.27
80682;BME280;70045;40.200;44.582;2024-03-23T10:06:11;85579.41;;;12.24;37.70
80682;BME280;70045;40.200;44.582;2024-03-23T10:08:37;85580.09;;;12.16;37.27
80682;BME280;70045;40.200;44.582;2024-03-23T10:11:16;85577.94;;;12.14;37.68
80682;BME280;70045;40.200;44.582;2024-03-23T10:13:43;85571.53;;;12.06;37.96
80682;BME280;70045;40.200;44.582;2024-03-23T10:16:09;85559.44;;;11.81;38.46
80682;BME280;70045;40.200;44.582;2024-03-23T10:18:41;85566.81;;;11.82;38.60
80682;BME280;70045;40.200;44.582;2024-03-23T10:21:07;85557.41;;;11.76;38.37
80682;BME280;70045;40.200;44.582;2024-03-23T10:23:35;85554.03;;;11.66;39.00
80682;BME280;70045;40.200;44.582;2024-03-23T10:26:13;85550.47;;;11.73;38.60
80682;BME280;70045;40.200;44.582;2024-03-23T10:28:58;85548.28;;;11.71;38.13
80682;BME280;70045;40.200;44.582;2024-03-23T10:31:24;85545.38;;;11.60;38.64
80682;BME280;70045;40.200;44.582;2024-03-23T10:33:50;85545.97;;;11.64;39.31
80682;BME280;70045;40.200;44.582;2024-03-23T10:36:15;85536.28;;;11.64;39.13
80682;BME280;70045;40.200;44.582;2024-03-23T10:38:42;85529.66;;;11.63;39.56
80682;BME280;70045;40.200;44.582;2024-03-23T10:41:11;85521.47;;;11.65;39.85
80682;BME280;70045;40.200;44.582;2024-03-23T10:43:37;85516.44;;;11.80;39.76
80682;BME280;70045;40.200;44.582;2024-03-23T10:46:05;85508.59;;;11.93;39.57
80682;BME280;70045;40.200;44.582;2024-03-23T10:48:32;85510.41;;;11.83;39.06
80682;BME280;70045;40.200;44.582;2024-03-23T10:50:58;85516.91;;;11.87;38.42
80682;BME280;70045;40.200;44.582;2024-03-23T10:53:26;85507.84;;;11.92;38.31
80682;BME280;70045;40.200;44.582;2024-03-23T10:55:52;85519.84;;;11.99;38.23
80682;BME280;70045;40.200;44.582;2024-03-23T10:58:27;85520.16;;;12.01;37.92
80682;BME280;70045;40.200;44.582;2024-03-23T11:00:55;85527.13;;;11.82;37.99
80682;BME280;70045;40.200;44.582;2024-03-23T11:03:37;85511.19;;;11.93;38.36
80682;BME280;70045;40.200;44.582;2024-03-23T11:06:06;85511.91;;;11.93;37.21
80682;BME280;70045;40.200;44.582;2024-03-23T11:08:37;85494.50;;;11.72;36.87
80682;BME280;70045;40.200;44.582;2024-03-23T11:11:19;85500.22;;;11.57;37.87
80682;BME280;70045;40.200;44.582;2024-03-23T11:13:52;85493.41;;;11.50;38.21
80682;BME280;70045;40.200;44.582;2024-03-23T11:16:25;85498.03;;;11.56;38.36
80682;BME280;70045;40.200;44.582;2024-03-23T11:18:54;85489.13;;;11.57;38.79
80682;BME280;70045;40.200;44.582;2024-03-23T11:21:55;85495.84;;;11.45;39.25
80682;BME280;70045;40.200;44.582;2024-03-23T11:24:21;85517.16;;;11.18;41.00
80682;BME280;70045;40.200;44.582;2024-03-23T11:26:47;85526.00;;;10.98;42.56
80682;BME280;70045;40.200;44.582;2024-03-23T11:29:15;85530.00;;;10.55;45.16
80682;BME280;70045;40.200;44.582;2024-03-23T11:31:48;85550.31;;;9.96;47.80
80682;BME280;70045;40.200;44.582;2024-03-23T11:34:15;85545.34;;;9.50;48.68
80682;BME280;70045;40.200;44.582;2024-03-23T11:36:41;85542.75;;;9.24;48.94
80682;BME280;70045;40.200;44.582;2024-03-23T11:39:15;85542.13;;;9.20;49.23
80682;BME280;70045;40.200;44.582;2024-03-23T11:41:51;85533.13;;;9.38;49.26
80682;BME280;70045;40.200;44.582;2024-03-23T11:46:42;85539.06;;;9.51;49.90
80682;BME280;70045;40.200;44.582;2024-03-23T11:49:23;85571.03;;;9.57;50.74
80682;BME280;70045;40.200;44.582;2024-03-23T11:51:48;85563.13;;;9.22;52.19
80682;BME280;70045;40.200;44.582;2024-03-23T11:54:14;85561.78;;;8.89;52.81
80682;BME280;70045;40.200;44.582;2024-03-23T11:56:40;85568.31;;;8.64;54.63
80682;BME280;70045;40.200;44.582;2024-03-23T11:59:08;85560.88;;;8.37;56.17
80682;BME280;70045;40.200;44.582;2024-03-23T12:01:37;85564.84;;;7.92;57.42
80682;BME280;70045;40.200;44.582;2024-03-23T12:04:03;85555.31;;;7.89;58.42
80682;BME280;70045;40.200;44.582;2024-03-23T12:06:28;85559.09;;;7.84;58.33
80682;BME280;70045;40.200;44.582;2024-03-23T12:09:05;85561.78;;;7.64;59.43
80682;BME280;70045;40.200;44.582;2024-03-23T12:11:31;85575.00;;;7.66;60.16
80682;BME280;70045;40.200;44.582;2024-03-23T12:13:59;85559.34;;;7.57;61.61
80682;BME280;70045;40.200;44.582;2024-03-23T12:16:25;85559.50;;;7.50;61.57
80682;BME280;70045;40.200;44.582;2024-03-23T12:18:52;85555.47;;;7.49;61.22
80682;BME280;70045;40.200;44.582;2024-03-23T12:21:17;85561.25;;;7.53;60.48
80682;BME280;70045;40.200;44.582;2024-03-23T12:23:43;85562.09;;;7.66;60.49
80682;BME280;70045;40.200;44.582;2024-03-23T12:26:12;85557.25;;;7.68;61.02
80682;BME280;70045;40.200;44.582;2024-03-23T12:28:37;85561.84;;;7.77;60.77
80682;BME280;70045;40.200;44.582;2024-03-23T12:31:04;85570.00;;;7.92;60.23
80682;BME280;70045;40.200;44.582;2024-03-23T12:33:29;85595.00;;;7.79;62.91
80682;BME280;70045;40.200;44.582;2024-03-23T12:35:55;85602.03;;;7.42;65.66
80682;BME280;70045;40.200;44.582;2024-03-23T12:38:22;85599.22;;;7.16;66.33
80682;BME280;70045;40.200;44.582;2024-03-23T12:40:51;85603.09;;;6.88;67.61
80682;BME280;70045;40.200;44.582;2024-03-23T12:43:17;85599.97;;;6.56;70.17
80682;BME280;70045;40.200;44.582;2024-03-23T12:45:46;85606.28;;;6.28;69.90
80682;BME280;70045;40.200;44.582;2024-03-23T12:48:12;85599.78;;;6.24;70.38
80682;BME280;70045;40.200;44.582;2024-03-23T12:50:38;85594.88;;;6.06;72.02
80682;BME280;70045;40.200;44.582;2024-03-23T12:53:04;85613.72;;;6.02;72.41
80682;BME280;70045;40.200;44.582;2024-03-23T12:55:29;85617.13;;;5.92;71.45
80682;BME280;70045;40.200;44.582;2024-03-23T12:57:55;85612.97;;;6.02;72.03
80682;BME280;70045;40.200;44.582;2024-03-23T13:00:20;85616.16;;;6.10;71.51
80682;BME280;70045;40.200;44.582;2024-03-23T13:02:46;85612.97;;;6.26;74.15
80682;BME280;70045;40.200;44.582;2024-03-23T13:05:12;85620.78;;;6.42;74.04
80682;BME280;70045;40.200;44.582;2024-03-23T13:07:37;85617.81;;;6.44;73.61
80682;BME280;70045;40.200;44.582;2024-03-23T13:10:03;85626.22;;;6.48;73.63
80682;BME280;70045;40.200;44.582;2024-03-23T13:12:29;85632.41;;;6.50;73.27
80682;BME280;70045;40.200;44.582;2024-03-23T13:14:55;85625.34;;;6.54;71.59
80682;BME280;70045;40.200;44.582;2024-03-23T13:17:20;85632.97;;;6.62;71.12
80682;BME280;70045;40.200;44.582;2024-03-23T13:19:46;85636.09;;;6.73;70.17
80682;BME280;70045;40.200;44.582;2024-03-23T13:22:11;85633.50;;;6.73;69.66
80682;BME280;70045;40.200;44.582;2024-03-23T13:24:37;85640.47;;;6.76;70.53
80682;BME280;70045;40.200;44.582;2024-03-23T13:27:05;85642.97;;;6.79;70.85
80682;BME280;70045;40.200;44.582;2024-03-23T13:29:30;85648.06;;;6.83;70.01
80682;BME280;70045;40.200;44.582;2024-03-23T13:31:56;85660.06;;;6.70;69.75
80682;BME280;70045;40.200;44.582;2024-03-23T13:34:21;85658.81;;;6.58;70.13
80682;BME280;70045;40.200;44.582;2024-03-23T13:36:47;85664.91;;;6.44;70.23
80682;BME280;70045;40.200;44.582;2024-03-23T13:39:14;85676.97;;;6.47;71.18
80682;BME280;70045;40.200;44.582;2024-03-23T13:41:44;85672.56;;;6.48;70.91
80682;BME280;70045;40.200;44.582;2024-03-23T13:44:11;85676.91;;;6.51;70.89
80682;BME280;70045;40.200;44.582;2024-03-23T13:46:37;85675.41;;;6.53;71.07
80682;BME280;70045;40.200;44.582;2024-03-23T13:49:04;85666.00;;;6.43;70.60
80682;BME280;70045;40.200;44.582;2024-03-23T13:51:30;85671.16;;;6.43;70.93